Time;durP1;ratioP1;P1;durP2;ratioP2;P2;SDS_P1;SDS_P2;PMS_P1;PMS_P2;Temp;Humidity;BMP_temperature;BMP_pressure;BME280_temperature;BME280_humidity;BME280_pressure;Samples;Min_cycle;Max_cycle;Signal;HPM_P1;HPM_P2
2021/12/19 00:00:18;;;;;;;16.17;11.90;;;14.10;94.20;;;;;;5187032;28;20088;-33
2021/12/19 00:03:33;;;;;;;10.90;8.43;;;14.00;94.20;;;;;;5186978;28;20119;-32
2021/12/19 00:08:52;;;;;;;15.33;11.07;;;14.00;94.20;;;;;;5187418;28;20042;-33
2021/12/19 00:11:25;;;;;;;10.97;8.40;;;14.00;94.30;;;;;;5169423;28;20042;-31
2021/12/19 00:13:56;;;;;;;13.17;7.90;;;14.00;94.40;;;;;;5187036;28;20129;-34
2021/12/19 00:16:27;;;;;;;9.73;6.97;;;14.00;94.50;;;;;;5168981;28;20446;-30
2021/12/19 00:18:58;;;;;;;12.03;8.83;;;14.00;94.40;;;;;;5152963;28;20499;-30
2021/12/19 00:21:30;;;;;;;16.67;11.57;;;14.00;94.50;;;;;;5186699;28;20073;-30
2021/12/19 00:24:01;;;;;;;9.63;8.43;;;14.00;94.50;;;;;;5169454;28;20042;-32
2021/12/19 00:26:32;;;;;;;12.73;9.30;;;14.00;94.60;;;;;;5186892;28;20383;-31
2021/12/19 00:29:03;;;;;;;12.20;10.07;;;14.00;94.60;;;;;;5186286;28;20172;-30
2021/12/19 00:31:34;;;;;;;10.23;8.10;;;14.00;94.60;;;;;;5186685;28;20038;-31
2021/12/19 00:34:05;;;;;;;11.97;10.03;;;14.00;94.60;;;;;;5186711;28;20052;-32
2021/12/19 00:36:36;;;;;;;12.37;9.73;;;14.00;94.70;;;;;;5169011;28;20115;-33
2021/12/19 00:39:07;;;;;;;10.20;7.93;;;13.90;94.70;;;;;;5186817;28;20069;-31
2021/12/19 00:41:39;;;;;;;10.77;8.80;;;13.90;94.80;;;;;;5169040;28;20471;-31
2021/12/19 00:44:11;;;;;;;8.77;7.87;;;14.00;94.80;;;;;;5185281;28;20057;-31
2021/12/19 00:46:51;;;;;;;9.80;6.22;;;13.90;94.80;;;;;;5186355;28;20125;-32
2021/12/19 00:49:25;;;;;;;8.57;6.73;;;13.90;94.90;;;;;;5154879;28;20121;-32
2021/12/19 00:51:56;;;;;;;8.03;5.33;;;13.90;94.90;;;;;;5186295;28;20053;-31
2021/12/19 00:54:27;;;;;;;7.07;5.97;;;14.00;94.90;;;;;;5168849;28;20046;-30
2021/12/19 00:56:58;;;;;;;10.40;6.50;;;14.00;94.90;;;;;;5186269;28;20509;-31
2021/12/19 00:59:29;;;;;;;8.13;6.50;;;14.00;94.90;;;;;;5152520;28;20121;-32
2021/12/19 01:02:00;;;;;;;6.40;5.47;;;14.00;94.90;;;;;;5186301;28;20100;-30
2021/12/19 01:04:31;;;;;;;7.00;5.80;;;14.00;95.00;;;;;;5168534;28;20050;-31
2021/12/19 01:07:02;;;;;;;7.00;5.00;;;13.90;95.00;;;;;;5168795;28;20364;-33
2021/12/19 01:09:33;;;;;;;6.77;5.83;;;14.00;95.10;;;;;;5186249;28;20075;-33
2021/12/19 01:12:05;;;;;;;7.37;5.03;;;14.00;95.10;;;;;;5186164;28;20128;-33
2021/12/19 01:14:37;;;;;;;7.70;4.90;;;14.00;95.10;;;;;;5169112;28;20046;-32
2021/12/19 01:17:08;;;;;;;5.90;4.13;;;14.00;95.10;;;;;;5186526;28;20044;-32
2021/12/19 01:19:39;;;;;;;5.87;4.00;;;14.00;95.10;;;;;;5186506;28;20046;-32
2021/12/19 01:22:10;;;;;;;6.30;4.10;;;14.00;95.10;;;;;;5186364;28;20046;-31
2021/12/19 01:24:41;;;;;;;5.07;4.13;;;14.00;95.20;;;;;;5172378;28;20042;-31
2021/12/19 01:27:12;;;;;;;5.63;3.40;;;14.00;95.20;;;;;;5190087;28;20484;-32
2021/12/19 01:29:43;;;;;;;5.70;3.40;;;13.90;95.20;;;;;;5190584;28;20042;-33
2021/12/19 01:32:14;;;;;;;4.90;3.20;;;13.90;95.30;;;;;;5190568;28;20046;-31
2021/12/19 01:34:45;;;;;;;3.80;3.20;;;13.90;95.40;;;;;;5172330;28;20050;-32
2021/12/19 01:37:16;;;;;;;4.37;3.10;;;13.90;95.40;;;;;;5189928;28;20057;-31
2021/12/19 01:39:47;;;;;;;3.77;3.20;;;13.90;95.40;;;;;;5172744;28;20096;-31
2021/12/19 01:42:20;;;;;;;3.73;2.80;;;13.90;95.40;;;;;;5172379;28;20061;-31
2021/12/19 01:44:51;;;;;;;5.37;3.43;;;13.90;95.40;;;;;;5190504;28;20038;-31
2021/12/19 01:47:22;;;;;;;6.03;4.07;;;14.00;95.50;;;;;;5190235;28;20042;-32
2021/12/19 01:49:55;;;;;;;5.93;4.00;;;13.90;95.40;;;;;;5189771;28;20077;-31
2021/12/19 01:52:28;;;;;;;;;;;14.00;95.40;;;;;;5157383;28;20053;-33
2021/12/19 01:54:59;;;;;;;8.48;5.25;;;14.00;95.40;;;;;;5189460;28;19921;-31
2021/12/19 01:57:31;;;;;;;6.83;4.30;;;14.00;95.40;;;;;;5172585;28;20041;-33
2021/12/19 02:00:06;;;;;;;4.10;3.37;;;14.00;95.50;;;;;;5172152;28;20072;-30
2021/12/19 02:02:38;;;;;;;4.37;3.03;;;14.00;95.60;;;;;;5172030;28;20104;-30
2021/12/19 02:05:08;;;;;;;5.93;3.80;;;13.90;95.60;;;;;;5189512;28;20049;-33
2021/12/19 02:07:46;;;;;;;5.77;3.27;;;13.90;95.70;;;;;;5189549;28;20411;-31
2021/12/19 02:10:21;;;;;;;6.23;3.43;;;13.90;95.70;;;;;;5189076;28;20439;-31
2021/12/19 02:12:52;;;;;;;6.00;3.70;;;14.00;95.70;;;;;;5172521;28;20480;-32
2021/12/19 02:15:24;;;;;;;12.20;8.63;;;13.90;95.70;;;;;;5172096;28;20046;-31
2021/12/19 02:18:00;;;;;;;9.90;5.67;;;13.90;95.80;;;;;;5189065;28;20403;-31
2021/12/19 02:20:36;;;;;;;6.53;3.43;;;13.80;95.80;;;;;;5171025;28;20053;-31
2021/12/19 02:23:09;;;;;;;9.50;6.23;;;13.80;96.00;;;;;;5171787;28;20495;-31
2021/12/19 02:25:40;;;;;;;7.30;4.37;;;13.90;96.00;;;;;;5172102;28;20061;-32
2021/12/19 02:28:12;;;;;;;6.57;4.27;;;13.90;96.00;;;;;;5171973;28;20049;-30
2021/12/19 02:30:43;;;;;;;5.90;3.50;;;13.90;96.00;;;;;;5171611;28;20077;-31
2021/12/19 02:33:18;;;;;;;7.87;5.43;;;13.90;96.00;;;;;;5189136;28;20073;-30
2021/12/19 02:35:58;;;;;;;6.63;4.30;;;13.90;96.00;;;;;;5155491;28;20050;-33
2021/12/19 02:39:15;;;;;;;6.57;3.87;;;13.90;95.90;;;;;;5172759;28;20056;-33
2021/12/19 02:50:21;;;;;;;6.80;4.37;;;13.90;96.00;;;;;;5126028;29;20078;-31
2021/12/19 02:52:52;;;;;;;7.00;4.00;;;13.90;96.00;;;;;;5125931;29;20059;-33
2021/12/19 02:55:23;;;;;;;6.27;3.70;;;13.90;96.10;;;;;;5110514;29;20078;-30
2021/12/19 02:57:54;;;;;;;8.67;3.87;;;13.90;96.10;;;;;;5125957;29;20090;-31
2021/12/19 03:00:25;;;;;;;8.63;4.47;;;13.90;96.10;;;;;;5125506;29;20062;-31
2021/12/19 03:02:56;;;;;;;9.50;4.30;;;13.90;96.00;;;;;;5126099;29;20059;-31
2021/12/19 03:05:30;;;;;;;8.70;3.67;;;13.80;96.10;;;;;;5126576;29;20069;-33
2021/12/19 03:08:03;;;;;;;11.77;4.80;;;13.80;96.20;;;;;;5094490;29;20051;-32
2021/12/19 03:18:49;;;;;;;10.40;3.90;;;13.70;96.10;;;;;;5160426;28;20049;-33
2021/12/19 03:21:24;;;;;;;8.87;3.30;;;13.70;96.10;;;;;;5170200;28;20141;-31
2021/12/19 03:23:55;;;;;;;8.67;4.23;;;13.70;96.00;;;;;;5188125;28;20053;-33
2021/12/19 03:26:26;;;;;;;6.53;3.20;;;13.50;96.00;;;;;;5155124;28;20084;-31
2021/12/19 03:28:57;;;;;;;6.57;3.67;;;13.40;96.30;;;;;;5188048;28;20448;-33
2021/12/19 03:31:28;;;;;;;10.87;4.03;;;13.40;96.30;;;;;;5187913;28;20061;-29
2021/12/19 03:33:59;;;;;;;8.23;3.93;;;13.40;96.20;;;;;;5154376;28;20446;-31
2021/12/19 03:36:31;;;;;;;7.37;3.57;;;13.40;96.00;;;;;;5187870;28;20073;-33
2021/12/19 03:39:13;;;;;;;10.50;3.83;;;13.40;96.10;;;;;;5187588;28;20053;-31
2021/12/19 03:41:44;;;;;;;8.30;3.40;;;13.30;96.20;;;;;;5188125;28;20551;-32
2021/12/19 03:44:15;;;;;;;6.40;3.23;;;13.40;96.10;;;;;;5187658;28;20153;-31
2021/12/19 03:46:46;;;;;;;8.80;3.67;;;13.40;95.90;;;;;;5187055;28;20128;-31
2021/12/19 03:49:19;;;;;;;7.13;2.90;;;13.40;95.80;;;;;;5187699;28;20120;-31
2021/12/19 03:51:50;;;;;;;8.35;4.88;;;13.40;95.80;;;;;;5171042;28;20368;-31
2021/12/19 03:54:22;;;;;;;6.87;3.53;;;13.40;95.90;;;;;;5187544;28;20052;-31
2021/12/19 03:56:53;;;;;;;7.47;3.55;;;13.40;95.80;;;;;;5187914;28;20540;-31
2021/12/19 03:59:26;;;;;;;10.63;4.70;;;13.40;95.70;;;;;;5188306;28;20049;-31
2021/12/19 04:01:58;;;;;;;6.03;2.80;;;13.50;95.70;;;;;;5187886;28;20480;-31
2021/12/19 04:04:34;;;;;;;8.93;4.37;;;13.40;95.90;;;;;;5169985;28;20088;-31
2021/12/19 04:07:06;;;;;;;6.10;3.10;;;13.40;95.80;;;;;;5187130;28;20474;-32
2021/12/19 04:09:36;;;;;;;6.27;3.00;;;13.30;95.90;;;;;;5169737;28;20050;-31
2021/12/19 04:12:08;;;;;;;6.00;2.83;;;13.30;95.90;;;;;;5169589;28;20573;-31
2021/12/19 04:14:40;;;;;;;6.37;3.10;;;13.40;95.90;;;;;;5187083;28;20050;-31
2021/12/19 04:17:11;;;;;;;7.97;3.47;;;13.40;96.00;;;;;;5186948;28;20046;-31
2021/12/19 04:19:42;;;;;;;6.40;3.10;;;13.30;96.10;;;;;;5187166;28;20045;-31
2021/12/19 04:22:13;;;;;;;6.30;3.40;;;13.30;96.10;;;;;;5169765;28;20408;-31
2021/12/19 04:24:44;;;;;;;5.77;3.10;;;13.30;96.00;;;;;;5187183;28;20057;-31
2021/12/19 04:27:15;;;;;;;6.77;3.13;;;13.40;96.10;;;;;;5187253;28;20100;-31
2021/12/19 04:29:46;;;;;;;7.07;3.40;;;13.40;96.20;;;;;;5169531;28;20488;-31
2021/12/19 04:32:18;;;;;;;6.03;3.10;;;13.40;96.10;;;;;;5169441;28;20074;-31
2021/12/19 04:34:49;;;;;;;4.67;2.67;;;13.40;96.00;;;;;;5186715;28;20066;-32
2021/12/19 04:40:22;;;;;;;6.97;2.93;;;13.40;96.20;;;;;;5186656;28;20056;-30
2021/12/19 05:16:17;;;;;;;5.70;3.10;;;13.20;96.60;;;;;;5187177;28;20498;-30
2021/12/19 05:18:50;;;;;;;9.17;2.37;;;13.20;96.50;;;;;;5169374;28;20125;-32
2021/12/19 05:21:25;;;;;;;4.63;2.28;;;13.10;96.20;;;;;;5186601;28;20046;-33
2021/12/19 05:26:28;;;;;;;7.00;2.27;;;13.00;96.20;;;;;;5186477;28;20071;-31
2021/12/19 05:28:59;;;;;;;4.67;2.10;;;13.10;96.10;;;;;;5168846;28;20057;-30
2021/12/19 05:31:30;;;;;;;5.10;2.03;;;13.20;96.00;;;;;;5186610;28;20180;-33
2021/12/19 05:34:01;;;;;;;5.87;2.67;;;13.20;95.90;;;;;;5186675;28;20118;-31
2021/12/19 05:47:37;;;;;;;5.33;2.10;;;13.40;95.70;;;;;;5186472;28;20041;-33
2021/12/19 05:50:08;;;;;;;8.03;3.07;;;13.30;95.90;;;;;;5168074;28;20419;-33
2021/12/19 05:52:39;;;;;;;5.87;3.20;;;13.20;95.80;;;;;;5168828;28;20117;-31
2021/12/19 05:55:11;;;;;;;7.60;2.70;;;13.30;95.70;;;;;;5185747;28;20041;-31
2021/12/19 05:57:42;;;;;;;5.73;2.30;;;13.30;95.70;;;;;;5186162;28;20395;-30
2021/12/19 06:00:15;;;;;;;6.57;3.20;;;13.10;95.90;;;;;;5167583;28;20049;-31
2021/12/19 06:02:46;;;;;;;6.63;2.77;;;13.10;96.00;;;;;;5167496;28;20049;-33
2021/12/19 06:05:17;;;;;;;8.97;3.00;;;13.20;95.90;;;;;;5184918;28;20038;-30
2021/12/19 06:07:48;;;;;;;4.33;2.10;;;13.10;95.90;;;;;;5186203;28;20486;-30
2021/12/19 06:10:20;;;;;;;5.67;2.50;;;13.20;95.80;;;;;;5187819;28;20129;-31
2021/12/19 06:12:51;;;;;;;7.57;2.80;;;13.20;96.00;;;;;;5172647;28;20052;-31
2021/12/19 06:15:22;;;;;;;7.83;2.80;;;13.20;95.90;;;;;;5189819;28;20399;-31
2021/12/19 06:17:53;;;;;;;7.10;2.83;;;13.10;95.90;;;;;;5189779;28;20089;-32
2021/12/19 06:20:25;;;;;;;7.37;2.97;;;13.10;95.90;;;;;;5189983;28;20484;-31
2021/12/19 06:22:56;;;;;;;7.87;2.47;;;13.10;96.00;;;;;;5189388;28;20081;-32
2021/12/19 06:25:27;;;;;;;5.83;2.50;;;13.20;96.00;;;;;;5189851;28;20066;-31
2021/12/19 06:27:58;;;;;;;4.63;2.60;;;13.20;95.80;;;;;;5155864;28;20137;-30
2021/12/19 06:30:30;;;;;;;6.73;2.80;;;13.30;95.70;;;;;;5192228;28;20148;-31
2021/12/19 06:33:01;;;;;;;4.97;2.50;;;13.20;95.90;;;;;;5206243;28;20041;-31
2021/12/19 06:35:32;;;;;;;5.33;2.77;;;13.20;96.00;;;;;;5206983;28;20766;-32
2021/12/19 06:38:03;;;;;;;8.97;2.33;;;13.20;96.00;;;;;;5206748;28;20045;-30
2021/12/19 06:40:34;;;;;;;9.07;2.70;;;13.20;96.00;;;;;;5205826;28;20038;-31
2021/12/19 06:43:07;;;;;;;9.47;3.47;;;13.30;96.10;;;;;;5205990;28;20499;-30
2021/12/19 06:45:38;;;;;;;5.45;2.95;;;13.30;95.90;;;;;;5207499;28;20045;-31
2021/12/19 06:48:11;;;;;;;6.33;2.40;;;13.40;95.80;;;;;;5207185;28;20037;-31
2021/12/19 06:50:42;;;;;;;7.80;2.67;;;13.30;95.90;;;;;;5186180;28;20052;-29
2021/12/19 06:53:13;;;;;;;9.77;3.17;;;13.40;95.80;;;;;;5200672;28;20061;-31
2021/12/19 06:55:44;;;;;;;8.20;3.00;;;13.40;95.80;;;;;;5199927;28;20452;-32
2021/12/19 06:58:15;;;;;;;6.00;2.53;;;13.50;95.80;;;;;;5206076;28;20046;-31
2021/12/19 07:00:45;;;;;;;8.53;2.90;;;13.50;95.70;;;;;;5207363;28;20056;-30
2021/12/19 07:03:20;;;;;;;8.63;2.27;;;13.50;95.70;;;;;;5206798;28;20144;-30
2021/12/19 07:05:51;;;;;;;6.70;2.60;;;13.50;95.60;;;;;;5207183;28;20049;-31
2021/12/19 07:08:22;;;;;;;7.43;2.80;;;13.60;95.70;;;;;;5206887;28;20041;-32
2021/12/19 07:10:53;;;;;;;15.77;5.80;;;13.50;95.60;;;;;;5205581;28;20037;-30
2021/12/19 07:13:24;;;;;;;18.83;10.33;;;13.50;95.60;;;;;;5197581;28;20050;-30
2021/12/19 07:15:55;;;;;;;11.70;5.60;;;13.60;95.60;;;;;;5200637;28;20052;-31
2021/12/19 07:18:26;;;;;;;11.57;4.00;;;13.60;95.50;;;;;;5205325;28;20096;-30
2021/12/19 07:20:57;;;;;;;9.63;4.53;;;13.60;95.60;;;;;;5205627;28;20478;-33
2021/12/19 07:23:28;;;;;;;9.07;4.40;;;13.50;95.50;;;;;;5184912;28;20414;-30
2021/12/19 07:25:59;;;;;;;7.53;2.77;;;13.50;95.50;;;;;;5200325;28;20037;-32
2021/12/19 07:28:30;;;;;;;9.17;3.80;;;13.50;95.40;;;;;;5191000;28;20037;-31
2021/12/19 07:31:01;;;;;;;12.43;4.10;;;13.60;95.40;;;;;;5191045;28;20046;-33
2021/12/19 07:33:32;;;;;;;9.07;4.87;;;13.60;95.30;;;;;;5189667;28;20045;-31
2021/12/19 07:36:04;;;;;;;9.53;3.93;;;13.60;95.30;;;;;;5208633;28;20124;-31
2021/12/19 07:38:47;;;;;;;7.70;3.70;;;13.70;95.10;;;;;;5192476;28;20077;-31
2021/12/19 07:41:18;;;;;;;9.07;3.35;;;13.70;95.10;;;;;;5142550;28;20046;-31
2021/12/19 07:43:49;;;;;;;8.43;3.83;;;13.70;95.00;;;;;;5187455;28;20061;-30
2021/12/19 07:46:20;;;;;;;7.60;3.40;;;13.80;94.90;;;;;;5187322;28;20124;-30
2021/12/19 07:48:51;;;;;;;7.57;2.87;;;13.80;94.90;;;;;;5186932;28;20044;-31
2021/12/19 07:51:22;;;;;;;9.63;3.77;;;13.80;95.10;;;;;;5187909;28;20402;-30
2021/12/19 07:53:53;;;;;;;7.80;3.00;;;13.80;94.60;;;;;;5137356;28;20062;-31
2021/12/19 07:56:24;;;;;;;10.50;3.63;;;13.80;94.60;;;;;;5187498;28;20056;-33
2021/12/19 07:58:55;;;;;;;11.47;3.47;;;13.80;94.50;;;;;;5154049;28;20069;-30
2021/12/19 08:01:26;;;;;;;5.80;2.70;;;13.90;94.50;;;;;;5170033;28;20554;-30
2021/12/19 08:03:57;;;;;;;6.10;3.30;;;13.90;94.40;;;;;;5187962;28;20052;-30
2021/12/19 08:06:28;;;;;;;7.93;3.27;;;14.00;94.40;;;;;;5169827;28;20042;-31
2021/12/19 08:09:07;;;;;;;9.23;3.13;;;14.20;94.30;;;;;;5187476;28;20400;-30
2021/12/19 08:11:41;;;;;;;9.83;4.37;;;14.20;94.10;;;;;;5166560;28;20054;-31
2021/12/19 08:14:13;;;;;;;11.17;4.77;;;14.40;93.90;;;;;;5166114;28;20047;-30
2021/12/19 08:16:45;;;;;;;8.23;4.00;;;14.50;93.70;;;;;;5169310;28;20472;-32
2021/12/19 08:19:16;;;;;;;9.60;5.10;;;14.50;93.60;;;;;;5186703;28;20126;-32
2021/12/19 08:21:47;;;;;;;9.07;4.87;;;14.60;93.60;;;;;;5169461;28;20129;-30
2021/12/19 08:24:18;;;;;;;9.03;3.00;;;14.60;93.60;;;;;;5187373;28;20042;-31
2021/12/19 08:26:49;;;;;;;9.10;3.97;;;14.60;93.50;;;;;;5187131;28;20057;-29
2021/12/19 08:29:20;;;;;;;7.83;3.30;;;14.60;93.60;;;;;;5169735;28;20049;-30
2021/12/19 08:31:51;;;;;;;5.67;2.97;;;14.60;93.40;;;;;;5169866;28;20042;-31
2021/12/19 08:34:22;;;;;;;6.73;2.83;;;13.40;94.30;;;;;;5167842;28;20048;-31
2021/12/19 08:36:54;;;;;;;8.23;3.50;;;12.60;95.70;;;;;;5169040;28;20121;-29
2021/12/19 08:39:27;;;;;;;9.88;6.68;;;12.10;96.40;;;;;;5185870;28;20042;-29
2021/12/19 08:41:58;;;;;;;9.98;4.40;;;11.90;96.90;;;;;;5169461;28;20064;-29
2021/12/19 08:44:29;;;;;;;6.13;3.73;;;11.80;97.00;;;;;;5186530;28;20116;-30
2021/12/19 08:47:00;;;;;;;9.63;6.10;;;11.80;97.10;;;;;;5169504;28;20051;-32
2021/12/19 08:49:31;;;;;;;6.97;4.23;;;11.70;97.10;;;;;;5186741;28;20092;-30
2021/12/19 08:52:03;;;;;;;12.33;7.27;;;11.60;97.20;;;;;;5186970;28;20049;-30
2021/12/19 08:54:34;;;;;;;16.43;8.13;;;11.60;97.30;;;;;;5168727;28;20054;-31
2021/12/19 08:57:05;;;;;;;11.43;5.10;;;11.70;97.60;;;;;;5169622;28;20388;-32
2021/12/19 08:59:39;;;;;;;8.13;4.10;;;12.10;97.00;;;;;;5186327;28;20045;-31
2021/12/19 09:02:10;;;;;;;11.70;6.90;;;12.50;96.30;;;;;;5185886;28;20038;-30
2021/12/19 09:04:41;;;;;;;28.83;16.57;;;12.80;95.90;;;;;;5185738;28;20041;-31
2021/12/19 09:07:13;;;;;;;9.97;3.90;;;13.00;95.60;;;;;;5168602;28;20117;-31
2021/12/19 09:09:45;;;;;;;23.33;14.27;;;13.20;95.30;;;;;;5185966;28;20054;-30
2021/12/19 09:12:16;;;;;;;9.33;4.30;;;13.30;95.10;;;;;;5186221;28;20427;-30
2021/12/19 09:14:47;;;;;;;9.00;4.40;;;13.40;95.00;;;;;;5186303;28;20038;-31
2021/12/19 09:17:18;;;;;;;10.80;7.07;;;13.50;94.80;;;;;;5168673;28;20061;-30
2021/12/19 09:19:50;;;;;;;12.97;6.13;;;13.50;94.70;;;;;;5186811;28;20104;-31
2021/12/19 09:22:21;;;;;;;12.70;7.13;;;13.70;94.70;;;;;;5186573;28;20052;-32
2021/12/19 09:24:52;;;;;;;10.93;4.97;;;13.70;94.70;;;;;;5169235;28;20042;-32
2021/12/19 09:27:24;;;;;;;10.73;5.93;;;13.70;94.60;;;;;;5186652;28;20487;-31
2021/12/19 09:29:56;;;;;;;10.70;3.83;;;13.70;94.40;;;;;;5186111;28;20042;-30
2021/12/19 09:32:27;;;;;;;9.73;4.27;;;13.80;94.40;;;;;;5186620;28;20125;-29
2021/12/19 09:34:58;;;;;;;14.27;6.43;;;13.80;94.30;;;;;;5169139;28;20427;-31
2021/12/19 09:37:30;;;;;;;15.70;11.70;;;13.80;94.20;;;;;;5152799;28;20046;-30
2021/12/19 09:40:32;;;;;;;14.17;8.27;;;13.90;94.20;;;;;;5186498;28;20050;-32
2021/12/19 09:43:31;;;;;;;13.10;7.53;;;14.00;94.20;;;;;;5123434;28;20171;-31
2021/12/19 09:46:02;;;;;;;10.93;6.40;;;14.00;94.20;;;;;;5112511;29;20121;-31
2021/12/19 09:48:33;;;;;;;10.90;4.10;;;14.00;94.10;;;;;;5127789;29;20077;-32
2021/12/19 09:51:04;;;;;;;14.43;6.87;;;14.00;94.20;;;;;;5111936;29;20191;-30
2021/12/19 09:53:37;;;;;;;18.90;10.87;;;13.90;94.10;;;;;;5127561;29;20054;-31
2021/12/19 09:56:10;;;;;;;22.05;11.77;;;13.80;94.00;;;;;;5127722;28;20130;-33
2021/12/19 09:58:42;;;;;;;12.10;6.97;;;13.80;94.10;;;;;;5127419;28;20141;-32
2021/12/19 10:01:13;;;;;;;13.40;6.40;;;13.70;94.00;;;;;;5127619;29;20047;-31
2021/12/19 10:03:44;;;;;;;9.47;5.00;;;13.70;94.00;;;;;;5127632;29;20059;-33
2021/12/19 10:06:25;;;;;;;11.33;5.53;;;13.70;94.00;;;;;;5127627;29;20098;-32
2021/12/19 10:09:13;;;;;;;11.67;4.97;;;13.70;94.00;;;;;;5111897;29;20493;-33
2021/12/19 10:12:00;;;;;;;9.67;5.50;;;13.80;94.10;;;;;;5127552;29;20083;-30
2021/12/19 10:14:32;;;;;;;12.20;5.93;;;13.70;94.00;;;;;;5158348;28;20108;-31
2021/12/19 10:17:07;;;;;;;20.48;10.13;;;13.80;94.00;;;;;;5172453;28;20057;-30
2021/12/19 10:19:52;;;;;;;17.47;9.47;;;13.70;94.00;;;;;;5189606;28;20126;-30
2021/12/19 10:22:33;;;;;;;23.33;12.33;;;13.80;94.20;;;;;;5189362;28;20058;-31
2021/12/19 10:25:14;;;;;;;15.47;5.80;;;13.70;94.20;;;;;;5189852;28;20042;-31
2021/12/19 10:27:58;;;;;;;10.97;4.87;;;13.70;94.00;;;;;;5190341;28;20038;-33
2021/12/19 10:30:34;;;;;;;11.57;5.47;;;13.60;94.10;;;;;;5156220;28;20069;-31
2021/12/19 10:33:06;;;;;;;10.03;3.97;;;13.60;94.20;;;;;;5189537;28;20112;-32
2021/12/19 10:35:41;;;;;;;8.57;4.30;;;13.50;94.20;;;;;;5189541;28;20077;-32
2021/12/19 10:38:20;;;;;;;7.93;3.83;;;13.50;94.30;;;;;;5172158;28;20373;-32
2021/12/19 10:41:00;;;;;;;11.63;5.63;;;13.50;94.20;;;;;;5172986;28;20058;-30
2021/12/19 10:43:32;;;;;;;17.23;11.07;;;13.50;94.20;;;;;;5171651;28;20428;-32
2021/12/19 10:46:04;;;;;;;8.20;5.17;;;12.50;95.10;;;;;;5171807;28;20073;-30
2021/12/19 10:48:39;;;;;;;7.68;3.75;;;11.80;96.10;;;;;;5172039;28;20050;-30
2021/12/19 10:51:19;;;;;;;7.43;3.83;;;11.50;96.80;;;;;;5189209;28;20104;-30
2021/12/19 10:53:55;;;;;;;7.57;4.10;;;11.40;96.90;;;;;;5189423;28;20050;-32
2021/12/19 10:56:33;;;;;;;8.60;4.00;;;11.30;97.10;;;;;;5171781;28;20046;-32
2021/12/19 10:59:05;;;;;;;8.20;3.70;;;11.20;97.20;;;;;;5189432;28;20045;-32
2021/12/19 11:01:38;;;;;;;9.17;5.17;;;11.10;97.30;;;;;;5188898;28;20418;-30
2021/12/19 11:04:11;;;;;;;6.63;4.57;;;11.10;97.30;;;;;;5189063;28;20042;-30
2021/12/19 11:06:45;;;;;;;8.43;4.57;;;11.10;97.20;;;;;;5171369;28;20050;-31
2021/12/19 11:09:20;;;;;;;9.70;4.87;;;11.00;97.10;;;;;;5188893;28;20120;-30
2021/12/19 11:11:56;;;;;;;9.50;4.90;;;11.00;97.50;;;;;;5188746;28;20053;-30
2021/12/19 11:14:28;;;;;;;16.97;10.77;;;11.00;97.40;;;;;;5171597;28;20041;-30
2021/12/19 11:17:09;;;;;;;13.47;8.07;;;11.00;97.60;;;;;;5171397;28;20109;-32
2021/12/19 11:19:40;;;;;;;9.30;6.03;;;11.00;97.70;;;;;;5171691;28;20512;-30
2021/12/19 11:22:11;;;;;;;15.03;8.53;;;11.00;97.70;;;;;;5171054;28;20046;-30
2021/12/19 11:24:43;;;;;;;9.53;4.93;;;11.00;97.60;;;;;;5188674;28;20435;-30
2021/12/19 11:27:14;;;;;;;10.03;5.80;;;11.00;97.50;;;;;;5171098;28;20046;-31
2021/12/19 11:29:45;;;;;;;8.30;4.53;;;10.90;97.70;;;;;;5187620;28;20079;-31
2021/12/19 11:32:19;;;;;;;17.37;10.20;;;10.90;97.70;;;;;;5171096;28;20046;-31
2021/12/19 11:34:56;;;;;;;7.80;4.60;;;10.90;97.50;;;;;;5155429;28;20057;-31
2021/12/19 11:37:42;;;;;;;24.53;9.77;;;10.90;97.40;;;;;;5188401;28;20050;-31
2021/12/19 11:40:17;;;;;;;9.33;5.00;;;10.90;97.50;;;;;;5172094;28;20050;-30
2021/12/19 11:42:49;;;;;;;11.03;5.33;;;10.90;97.40;;;;;;5187796;28;20065;-31
2021/12/19 11:45:38;;;;;;;7.93;4.57;;;10.90;97.40;;;;;;5154357;28;20145;-31
2021/12/19 11:48:18;;;;;;;12.03;7.03;;;10.90;97.50;;;;;;5172341;28;20100;-31
2021/12/19 11:50:53;;;;;;;8.43;4.80;;;10.90;97.60;;;;;;5188102;28;20384;-29
2021/12/19 11:53:41;;;;;;;12.57;6.47;;;10.90;97.50;;;;;;5187464;28;20503;-30
2021/12/19 11:56:17;;;;;;;9.67;4.50;;;10.90;97.40;;;;;;5186774;28;20125;-32
2021/12/19 11:58:49;;;;;;;12.83;5.03;;;10.90;97.60;;;;;;5187317;28;20070;-31
2021/12/19 12:01:22;;;;;;;15.38;5.95;;;11.00;97.60;;;;;;5169964;28;20049;-31
2021/12/19 12:03:57;;;;;;;14.57;7.43;;;11.30;97.20;;;;;;5186262;28;20042;-32
2021/12/19 12:06:33;;;;;;;16.50;7.77;;;11.70;96.90;;;;;;5153447;28;20121;-30
2021/12/19 12:09:38;;;;;;;14.23;7.97;;;12.00;96.40;;;;;;5150914;28;20042;-33
2021/12/19 12:12:13;;;;;;;17.13;8.07;;;12.20;95.90;;;;;;5164261;28;20050;-32
2021/12/19 12:14:59;;;;;;;18.70;9.77;;;12.30;95.70;;;;;;5148965;28;20061;-32
2021/12/19 12:17:35;;;;;;;19.97;10.57;;;12.40;95.40;;;;;;5143968;28;20042;-30
2021/12/19 12:20:11;;;;;;;20.70;11.17;;;12.50;95.40;;;;;;5148391;28;20117;-31
2021/12/19 12:22:51;;;;;;;10.30;5.63;;;12.60;95.30;;;;;;5164162;28;20042;-33
2021/12/19 12:25:27;;;;;;;13.13;6.80;;;12.60;95.10;;;;;;5148766;28;20054;-34
2021/12/19 12:28:05;;;;;;;12.93;6.10;;;12.70;95.10;;;;;;5164391;28;20559;-33
2021/12/19 12:30:50;;;;;;;17.07;6.77;;;12.70;95.10;;;;;;5145013;28;20480;-33
2021/12/19 12:33:24;;;;;;;8.23;3.93;;;12.80;95.00;;;;;;5163773;28;20058;-32
2021/12/19 12:35:57;;;;;;;14.77;9.33;;;12.80;95.10;;;;;;5148121;28;20050;-31
2021/12/19 12:38:28;;;;;;;13.23;5.10;;;12.80;95.00;;;;;;5164166;28;20054;-33
2021/12/19 12:41:15;;;;;;;28.20;21.97;;;12.80;95.10;;;;;;5132043;28;20063;-31
2021/12/19 12:43:46;;;;;;;13.00;6.73;;;12.80;95.20;;;;;;5146377;28;20498;-33
2021/12/19 12:46:18;;;;;;;13.77;9.30;;;12.90;95.30;;;;;;5171038;28;20107;-33
2021/12/19 12:48:58;;;;;;;13.87;8.20;;;12.90;95.20;;;;;;5185860;28;20136;-32
2021/12/19 12:51:32;;;;;;;19.03;9.37;;;13.00;95.20;;;;;;5185646;28;20054;-31
2021/12/19 12:54:08;;;;;;;21.67;11.63;;;13.00;95.20;;;;;;5185529;28;20073;-32
2021/12/19 12:56:44;;;;;;;16.77;8.67;;;13.10;95.20;;;;;;5169906;28;20038;-30
2021/12/19 12:59:17;;;;;;;24.83;14.90;;;13.10;95.20;;;;;;5186815;28;20072;-31
2021/12/19 13:01:51;;;;;;;14.60;9.77;;;13.10;95.30;;;;;;5153023;28;20045;-32
2021/12/19 13:04:23;;;;;;;17.63;10.63;;;13.20;95.30;;;;;;5185692;28;20073;-33
2021/12/19 13:06:57;;;;;;;15.50;8.77;;;13.20;95.40;;;;;;5152661;28;20088;-31
2021/12/19 13:09:34;;;;;;;12.13;5.33;;;13.20;95.30;;;;;;5186506;28;20064;-31
2021/12/19 13:12:11;;;;;;;18.13;9.10;;;13.20;95.30;;;;;;5186316;28;20041;-30
2021/12/19 13:14:45;;;;;;;16.77;10.80;;;13.30;95.30;;;;;;5186001;28;20042;-31
2021/12/19 13:17:26;;;;;;;20.83;13.43;;;13.30;95.40;;;;;;5186257;28;20042;-30
2021/12/19 13:20:02;;;;;;;11.03;6.43;;;13.30;95.40;;;;;;5189753;28;20038;-31
2021/12/19 13:22:36;;;;;;;18.83;11.70;;;13.30;95.60;;;;;;5172880;28;20092;-33
2021/12/19 13:25:25;;;;;;;11.33;7.93;;;13.30;95.90;;;;;;5173157;28;20038;-30
2021/12/19 13:27:58;;;;;;;7.40;3.70;;;13.30;95.50;;;;;;5173567;28;20099;-30
2021/12/19 13:30:31;;;;;;;7.28;4.15;;;13.20;95.20;;;;;;5172447;28;20088;-32
2021/12/19 13:33:04;;;;;;;5.55;3.42;;;13.20;94.50;;;;;;5172913;28;20069;-30
2021/12/19 13:35:49;;;;;;;9.33;5.67;;;13.20;94.60;;;;;;5188175;28;20069;-32
2021/12/19 13:38:40;;;;;;;6.73;4.73;;;13.20;94.80;;;;;;5134376;28;20514;-33
2021/12/19 13:41:11;;;;;;;17.47;9.30;;;13.30;94.90;;;;;;5147304;28;20070;-33
2021/12/19 13:43:43;;;;;;;14.13;7.47;;;13.30;95.10;;;;;;5146550;28;20133;-32
2021/12/19 13:46:16;;;;;;;15.63;9.13;;;13.30;95.20;;;;;;5130531;28;20063;-32
2021/12/19 13:48:52;;;;;;;14.53;8.90;;;13.40;95.30;;;;;;5146694;28;20481;-33
2021/12/19 13:51:24;;;;;;;14.33;9.23;;;13.30;95.10;;;;;;5130904;28;20054;-32
2021/12/19 13:53:57;;;;;;;12.45;7.75;;;13.30;95.10;;;;;;5130753;28;20062;-32
2021/12/19 13:56:32;;;;;;;8.43;4.95;;;13.40;95.10;;;;;;5130820;28;20563;-32
2021/12/19 13:59:16;;;;;;;10.33;5.87;;;13.30;94.90;;;;;;5147105;28;20246;-31
2021/12/19 14:01:47;;;;;;;9.80;6.10;;;13.30;94.80;;;;;;5144387;28;20394;-31
2021/12/19 14:04:24;;;;;;;9.60;5.70;;;13.30;94.80;;;;;;5137046;28;20436;-31
2021/12/19 14:07:05;;;;;;;8.40;4.73;;;13.30;94.70;;;;;;5124237;28;20521;-31
2021/12/19 14:09:40;;;;;;;25.77;16.10;;;13.20;94.50;;;;;;5150739;28;20111;-33
2021/12/19 14:12:25;;;;;;;16.67;11.83;;;13.20;94.50;;;;;;5187830;28;20054;-30
2021/12/19 14:15:11;;;;;;;30.70;19.63;;;13.20;94.30;;;;;;5156219;28;20088;-31
2021/12/19 14:17:42;;;;;;;27.53;16.47;;;13.30;94.20;;;;;;5167951;28;20444;-31
2021/12/19 14:20:13;;;;;;;26.57;17.93;;;13.30;94.20;;;;;;5169842;28;20081;-31
2021/12/19 14:22:44;;;;;;;17.70;9.93;;;13.30;94.10;;;;;;5187310;28;20487;-32
2021/12/19 14:25:26;;;;;;;14.47;8.17;;;13.30;93.90;;;;;;5168989;28;20104;-30